Time;durP1;ratioP1;P1;durP2;ratioP2;P2;SDS_P1;SDS_P2;PMS_P1;PMS_P2;Temp;Humidity;BMP_temperature;BMP_pressure;BME280_temperature;BME280_humidity;BME280_pressure;Samples;Min_cycle;Max_cycle;Signal;HPM_P1;HPM_P2
2021/01/31 00:00:49;;;;;;;126.78;52.45;;;;;;;4.01;73.88;98806.16;1733829;83;21150;-62
2021/01/31 00:03:24;;;;;;;61.35;34.00;;;;;;;4.04;73.85;98804.83;1733765;83;21328;-67
2021/01/31 00:05:53;;;;;;;53.00;30.45;;;;;;;4.04;73.94;98812.64;1743779;82;21728;-67
2021/01/31 00:08:24;;;;;;;58.92;35.00;;;;;;;4.02;73.87;98805.28;1746014;82;21194;-62
2021/01/31 00:10:53;;;;;;;61.92;33.58;;;;;;;4.02;73.81;98810.03;1721631;82;21190;-61
2021/01/31 00:13:22;;;;;;;42.73;26.10;;;;;;;4.04;73.82;98815.66;1742218;82;21459;-62
2021/01/31 00:15:51;;;;;;;37.70;24.23;;;;;;;4.00;73.77;98819.59;1716792;83;21212;-67
2021/01/31 00:18:24;;;;;;;31.23;22.02;;;;;;;3.95;73.85;98822.72;1746306;82;21174;-61
2021/01/31 00:20:54;;;;;;;35.48;23.75;;;;;;;3.96;73.76;98824.45;1746485;82;21212;-66
2021/01/31 00:23:22;;;;;;;32.67;22.30;;;;;;;3.92;73.77;98826.66;1734154;82;21175;-67
2021/01/31 00:25:50;;;;;;;25.20;18.10;;;;;;;3.90;73.68;98827.53;1722979;82;21166;-62
2021/01/31 00:28:20;;;;;;;25.02;18.15;;;;;;;3.84;73.67;98837.58;1746212;82;21167;-61
2021/01/31 00:30:50;;;;;;;25.45;17.73;;;;;;;3.73;73.66;98828.58;1746500;82;21183;-67
2021/01/31 00:33:28;;;;;;;30.80;19.67;;;;;;;3.64;73.72;98835.16;1742172;82;21171;-67
2021/01/31 00:35:56;;;;;;;34.20;21.23;;;;;;;3.59;73.72;98839.53;1745849;81;21159;-67
2021/01/31 00:38:25;;;;;;;27.30;20.60;;;;;;;3.52;73.91;98846.09;1746249;82;21158;-67
2021/01/31 00:40:54;;;;;;;27.07;18.95;;;;;;;3.50;74.06;98846.53;1743516;82;21565;-67
2021/01/31 00:43:21;;;;;;;29.15;21.97;;;;;;;3.50;74.07;98854.34;1744927;82;21215;-62
2021/01/31 00:45:50;;;;;;;27.42;18.25;;;;;;;3.50;74.00;98855.64;1745891;82;21175;-62
2021/01/31 00:48:18;;;;;;;26.48;17.73;;;;;;;3.47;74.06;98851.77;1746109;82;21187;-62
2021/01/31 00:50:46;;;;;;;24.60;16.40;;;;;;;3.48;73.98;98853.48;1735915;82;21289;-62
2021/01/31 00:53:18;;;;;;;24.75;17.45;;;;;;;3.45;73.84;98853.51;1725798;82;21265;-66
2021/01/31 00:55:48;;;;;;;21.07;15.78;;;;;;;3.45;73.84;98850.06;1716672;83;21182;-66
2021/01/31 00:58:17;;;;;;;25.92;16.90;;;;;;;3.44;73.86;98853.54;1716902;83;21175;-66
2021/01/31 01:00:46;;;;;;;23.40;17.23;;;;;;;3.45;73.85;98847.46;1743611;82;21191;-66
2021/01/31 01:03:15;;;;;;;23.35;16.32;;;;;;;3.45;73.86;98859.16;1728266;82;21123;-67
2021/01/31 01:05:45;;;;;;;24.80;15.55;;;;;;;3.44;73.85;98867.39;1715478;83;21184;-66
2021/01/31 01:08:13;;;;;;;23.30;15.25;;;;;;;3.43;73.74;98864.36;1719160;82;21302;-62
2021/01/31 01:10:41;;;;;;;20.30;14.83;;;;;;;3.42;73.76;98857.02;1746227;82;21325;-62
2021/01/31 01:13:08;;;;;;;20.95;15.53;;;;;;;3.42;73.75;98853.11;1740335;82;21170;-66
2021/01/31 01:15:36;;;;;;;22.90;16.17;;;;;;;3.45;73.77;98856.11;1733952;82;21151;-62
2021/01/31 01:18:04;;;;;;;22.60;15.32;;;;;;;3.50;73.65;98862.14;1736689;82;21151;-66
2021/01/31 01:20:32;;;;;;;21.12;15.10;;;;;;;3.48;73.67;98869.55;1732535;82;21192;-67
2021/01/31 01:23:01;;;;;;;27.35;18.77;;;;;;;3.48;73.37;98870.40;1746472;82;21155;-63
2021/01/31 01:25:29;;;;;;;26.62;17.12;;;;;;;3.48;73.56;98873.00;1746539;82;21623;-62
2021/01/31 01:27:57;;;;;;;25.12;16.48;;;;;;;3.45;73.67;98869.57;1739199;82;21526;-66
2021/01/31 01:30:28;;;;;;;25.55;17.02;;;;;;;3.44;73.67;98871.30;1745322;82;21320;-63
2021/01/31 01:32:57;;;;;;;23.73;16.10;;;;;;;3.45;73.67;98876.08;1742897;82;21292;-66
2021/01/31 01:35:25;;;;;;;22.60;15.55;;;;;;;3.46;73.65;98877.80;1735020;82;21112;-63
2021/01/31 01:37:53;;;;;;;25.57;17.73;;;;;;;3.46;73.52;98889.05;1716622;83;21163;-67
2021/01/31 01:40:34;;;;;;;22.45;15.10;;;;;;;3.46;73.52;98890.36;1745476;82;21579;-62
2021/01/31 01:43:03;;;;;;;29.37;16.85;;;;;;;3.35;72.40;98920.77;1746254;82;21195;-64
2021/01/31 01:45:32;;;;;;;29.52;18.55;;;;;;;3.42;73.01;98924.64;1739725;82;21166;-63
2021/01/31 01:48:06;;;;;;;21.33;15.90;;;;;;;3.43;73.19;98938.50;1738467;82;21178;-66
2021/01/31 01:50:38;;;;;;;22.10;14.75;;;;;;;3.35;73.32;98945.48;1719183;82;21306;-63
2021/01/31 01:53:07;;;;;;;23.40;15.83;;;;;;;3.44;73.66;98949.78;1716653;82;21155;-63
2021/01/31 01:55:39;;;;;;;22.50;15.58;;;;;;;3.50;73.50;98940.19;1745320;82;21285;-66
2021/01/31 01:58:13;;;;;;;25.00;15.30;;;;;;;3.62;73.65;98953.55;1730480;82;21175;-66
2021/01/31 02:00:44;;;;;;;25.43;15.90;;;;;;;3.68;73.56;98965.22;1716352;83;21188;-65
2021/01/31 02:03:21;;;;;;;22.70;16.37;;;;;;;3.77;73.57;98963.43;1725581;82;21198;-63
2021/01/31 02:05:59;;;;;;;19.50;13.55;;;;;;;3.97;73.21;98973.27;1736594;82;21127;-67
2021/01/31 02:08:27;;;;;;;22.27;14.38;;;;;;;3.98;73.30;98968.45;1745351;82;21312;-64
2021/01/31 02:10:56;;;;;;;21.23;14.80;;;;;;;4.16;72.96;98970.06;1745160;82;21204;-64
2021/01/31 02:13:23;;;;;;;18.87;13.53;;;;;;;4.25;72.82;98963.90;1740306;82;21147;-64
2021/01/31 02:15:52;;;;;;;19.02;14.05;;;;;;;4.33;72.98;98975.54;1739273;82;21582;-67
2021/01/31 02:18:54;;;;;;;21.75;14.30;;;;;;;4.38;72.84;98975.52;1741972;82;21203;-67
2021/01/31 02:22:00;;;;;;;19.60;13.90;;;;;;;4.48;72.72;98988.00;1739278;82;21199;-67
2021/01/31 02:25:01;;;;;;;19.25;13.60;;;;;;;4.50;72.79;99000.58;1745543;82;21127;-67
2021/01/31 02:28:01;;;;;;;21.62;14.93;;;;;;;4.48;72.44;99011.00;1733705;82;21175;-65
2021/01/31 02:30:37;;;;;;;21.20;14.38;;;;;;;4.46;72.34;99013.64;1728071;82;21260;-63
2021/01/31 02:33:45;;;;;;;20.02;14.23;;;;;;;4.45;72.67;99027.54;1746164;82;21284;-63
2021/01/31 02:36:40;;;;;;;21.02;14.90;;;;;;;4.40;72.49;99032.37;1733483;82;21170;-63
2021/01/31 02:39:28;;;;;;;21.52;14.70;;;;;;;4.30;72.53;99056.31;1721094;82;21138;-63
2021/01/31 02:42:23;;;;;;;22.77;15.72;;;;;;;4.23;72.66;99064.63;1746039;82;21273;-63
2021/01/31 02:45:09;;;;;;;23.38;16.32;;;;;;;4.11;72.10;99051.69;1730428;82;21675;-63
2021/01/31 02:47:45;;;;;;;22.98;15.70;;;;;;;4.09;72.36;99060.83;1719667;82;21138;-64
2021/01/31 02:50:21;;;;;;;22.70;16.60;;;;;;;4.04;72.14;99070.83;1723858;82;21202;-66
2021/01/31 02:53:03;;;;;;;25.12;17.40;;;;;;;4.01;72.41;99086.90;1739130;82;21253;-65
2021/01/31 02:55:42;;;;;;;22.48;16.07;;;;;;;3.96;72.49;99096.92;1745710;82;21200;-65
2021/01/31 02:58:25;;;;;;;26.70;16.77;;;;;;;3.90;71.60;99099.14;1741379;82;21258;-66
2021/01/31 03:01:03;;;;;;;23.10;16.35;;;;;;;3.86;72.29;99111.29;1738366;82;21629;-63
2021/01/31 03:03:57;;;;;;;21.50;16.30;;;;;;;3.86;71.54;99107.38;1746725;82;21159;-65
2021/01/31 03:06:29;;;;;;;24.98;16.73;;;;;;;3.73;72.06;99114.84;1676391;85;21632;-66
2021/01/31 03:09:15;;;;;;;22.45;16.17;;;;;;;3.70;71.79;99118.31;1820026;77;22131;-65
2021/01/31 03:12:04;;;;;;;23.90;16.82;;;;;;;3.56;71.77;99131.39;1757618;81;21673;-68
2021/01/31 03:14:43;;;;;;;24.40;16.77;;;;;;;3.68;72.38;99136.97;1702833;81;21130;-68
2021/01/31 03:17:22;;;;;;;28.12;18.90;;;;;;;3.55;71.82;99149.17;1761121;81;21165;-65
2021/01/31 03:19:55;;;;;;;27.93;17.55;;;;;;;3.55;72.25;99154.37;1747636;81;21216;-66
2021/01/31 03:22:27;;;;;;;26.73;17.80;;;;;;;3.48;72.08;99171.32;1751370;81;21297;-66
2021/01/31 03:24:57;;;;;;;29.80;18.60;;;;;;;3.37;72.59;99181.73;1753202;81;21156;-66
2021/01/31 03:27:30;;;;;;;25.27;16.80;;;;;;;3.47;72.79;99182.14;1762547;81;21550;-66
2021/01/31 03:29:58;;;;;;;24.45;16.75;;;;;;;3.49;72.36;99184.77;1751837;82;21202;-64
2021/01/31 03:32:39;;;;;;;27.30;18.60;;;;;;;3.48;72.83;99181.27;1733668;81;21640;-67
2021/01/31 03:35:15;;;;;;;23.42;16.65;;;;;;;3.50;72.94;99189.94;1761649;80;21154;-63
2021/01/31 03:37:53;;;;;;;28.10;16.77;;;;;;;3.45;72.64;99186.48;1756880;81;21175;-64
2021/01/31 03:40:23;;;;;;;26.42;17.35;;;;;;;3.37;71.89;99182.61;1716369;83;21354;-67
2021/01/31 03:42:52;;;;;;;25.62;17.82;;;;;;;3.44;72.55;99187.35;1704123;82;21261;-67
2021/01/31 03:45:29;;;;;;;25.62;17.10;;;;;;;3.46;72.44;99198.63;1713365;84;21601;-67
2021/01/31 03:48:16;;;;;;;25.35;16.77;;;;;;;3.50;72.36;99199.50;1709321;84;21146;-66
2021/01/31 03:50:44;;;;;;;22.60;16.62;;;;;;;3.52;72.93;99209.02;1708810;84;21203;-67
2021/01/31 03:53:12;;;;;;;24.60;17.32;;;;;;;3.49;72.93;99212.08;1710495;83;21299;-67
2021/01/31 03:55:42;;;;;;;31.42;19.05;;;;;;;3.47;73.17;99225.06;1711522;83;21158;-64
2021/01/31 03:58:12;;;;;;;27.67;17.77;;;;;;;3.46;73.21;99233.74;1708764;84;21340;-67
2021/01/31 04:00:50;;;;;;;26.07;17.42;;;;;;;3.40;73.00;99238.53;1709622;82;21593;-64
2021/01/31 04:03:28;;;;;;;27.80;17.32;;;;;;;3.37;73.05;99236.35;1712472;84;21315;-64
2021/01/31 04:06:20;;;;;;;29.65;18.98;;;;;;;3.29;73.14;99248.52;1694743;83;21647;-67
2021/01/31 04:08:53;;;;;;;25.90;16.87;;;;;;;3.19;73.16;99259.34;1688537;84;21166;-64
2021/01/31 04:11:42;;;;;;;31.20;19.37;;;;;;;3.18;72.80;99263.69;1702619;82;21146;-67
2021/01/31 04:14:47;;;;;;;28.73;19.35;;;;;;;3.10;72.55;99275.38;1679203;85;21150;-64
2021/01/31 04:17:14;;;;;;;27.58;18.52;;;;;;;3.00;72.22;99277.97;1693893;85;21384;-65
2021/01/31 04:19:43;;;;;;;31.33;20.50;;;;;;;2.88;71.81;99290.08;1683287;83;21183;-64
2021/01/31 04:22:10;;;;;;;25.40;16.85;;;;;;;2.62;73.08;99306.95;1682157;85;21114;-67
2021/01/31 04:24:38;;;;;;;29.80;19.67;;;;;;;2.51;72.58;99315.56;1691417;85;21172;-67
2021/01/31 04:27:05;;;;;;;25.20;16.80;;;;;;;2.39;72.37;99314.22;1693228;85;21200;-66
2021/01/31 04:29:34;;;;;;;29.57;18.67;;;;;;;2.30;72.60;99318.06;1682684;83;21219;-64
2021/01/31 04:32:03;;;;;;;24.95;17.15;;;;;;;2.19;72.56;99324.10;1689681;85;21162;-64
2021/01/31 04:34:31;;;;;;;27.93;19.45;;;;;;;2.04;72.58;99317.08;1692332;85;21196;-64
2021/01/31 04:36:58;;;;;;;26.77;18.30;;;;;;;2.02;72.84;99327.88;1693196;85;21194;-66
2021/01/31 04:39:26;;;;;;;24.35;17.10;;;;;;;1.99;73.03;99325.27;1692067;85;21334;-64
2021/01/31 04:41:54;;;;;;;27.48;18.57;;;;;;;2.00;73.23;99330.89;1682372;85;21120;-64
2021/01/31 04:44:21;;;;;;;29.65;20.15;;;;;;;2.02;73.41;99343.90;1720422;83;21188;-66
2021/01/31 04:47:14;;;;;;;27.62;18.12;;;;;;;1.98;73.78;99352.11;1720557;82;21103;-66
2021/01/31 04:50:17;;;;;;;25.02;16.95;;;;;;;2.05;73.61;99355.16;1696260;83;21151;-67
2021/01/31 04:53:12;;;;;;;28.52;17.20;;;;;;;2.01;73.43;99377.20;1691633;85;21170;-65
2021/01/31 04:56:15;;;;;;;37.83;22.17;;;;;;;1.95;73.56;99381.94;1683584;83;21322;-66
2021/01/31 04:58:51;;;;;;;31.10;18.82;;;;;;;1.96;73.44;99391.87;1844796;77;22159;-64
2021/01/31 05:01:24;;;;;;;25.57;16.17;;;;;;;1.92;73.63;99400.08;1765504;80;21637;-66
2021/01/31 05:04:03;;;;;;;22.70;15.28;;;;;;;1.89;73.27;99403.95;1762146;81;21150;-65
2021/01/31 05:06:40;;;;;;;22.58;14.58;;;;;;;1.91;73.23;99416.51;1786169;80;21561;-66
2021/01/31 05:09:20;;;;;;;22.80;14.33;;;;;;;2.02;73.09;99431.70;1785753;80;21668;-67
2021/01/31 05:12:01;;;;;;;;;;;;;;;1.94;72.03;99439.89;1738228;81;21150;-66
2021/01/31 05:14:54;;;;;;;19.67;12.45;;;;;;;2.02;72.61;99454.22;1769292;80;20166;-65
2021/01/31 05:17:22;;;;;;;21.25;12.13;;;;;;;1.96;71.88;99461.95;1761201;80;21150;-65
2021/01/31 05:19:50;;;;;;;20.45;12.43;;;;;;;1.98;72.02;99465.02;1728249;83;21174;-65
2021/01/31 05:22:22;;;;;;;18.55;11.80;;;;;;;2.06;71.90;99476.75;1699232;84;21181;-65
2021/01/31 05:24:51;;;;;;;20.50;12.53;;;;;;;1.98;71.43;99491.38;1726955;83;21203;-66
2021/01/31 05:27:19;;;;;;;15.75;10.70;;;;;;;1.96;71.57;99491.80;1698605;83;21191;-66
2021/01/31 05:29:47;;;;;;;18.55;11.90;;;;;;;2.02;71.27;99499.20;1730787;82;21134;-66
2021/01/31 05:32:18;;;;;;;20.23;12.85;;;;;;;2.13;70.88;99497.13;1742567;82;21166;-66
2021/01/31 05:34:51;;;;;;;20.12;12.45;;;;;;;2.10;71.67;99503.17;1702606;83;21147;-68
2021/01/31 05:37:29;;;;;;;19.02;11.28;;;;;;;2.08;72.31;99508.78;1725464;82;21621;-72
2021/01/31 05:40:07;;;;;;;17.90;11.30;;;;;;;2.12;71.89;99511.84;1723469;82;21565;-69
2021/01/31 05:42:42;;;;;;;16.77;10.63;;;;;;;2.14;72.01;99517.92;1716659;82;21297;-68
2021/01/31 05:45:20;;;;;;;17.25;10.68;;;;;;;2.15;72.05;99514.88;1728727;82;21334;-68
2021/01/31 05:47:50;;;;;;;17.42;10.80;;;;;;;2.23;72.00;99516.67;1717974;82;21122;-69
2021/01/31 05:50:35;;;;;;;18.17;10.68;;;;;;;2.29;70.96;99518.47;1717594;82;21181;-67
2021/01/31 05:53:35;;;;;;;15.13;10.38;;;;;;;2.32;71.51;99518.91;1717185;82;21577;-67
2021/01/31 05:56:27;;;;;;;;;;;;;;;2.19;70.27;99506.27;1716187;82;21125;-69
2021/01/31 05:59:10;;;;;;;14.83;9.05;;;;;;;2.12;69.18;99501.46;1697343;83;20148;-67
2021/01/31 06:02:00;;;;;;;17.67;9.35;;;;;;;2.13;69.25;99510.10;1700353;83;21579;-68
2021/01/31 06:04:27;;;;;;;14.95;9.33;;;;;;;2.14;70.15;99507.95;1697580;83;21123;-65
2021/01/31 06:07:10;;;;;;;14.25;9.23;;;;;;;2.23;71.46;99521.86;1698520;83;21186;-65
2021/01/31 06:09:47;;;;;;;17.20;9.65;;;;;;;2.34;69.77;99534.06;1701302;83;21138;-65
2021/01/31 06:12:25;;;;;;;16.07;10.25;;;;;;;2.34;71.23;99547.05;1680253;85;21186;-66
2021/01/31 06:15:10;;;;;;;15.48;10.13;;;;;;;2.28;70.56;99553.49;1715208;82;21220;-67
2021/01/31 06:17:38;;;;;;;15.15;9.95;;;;;;;2.26;70.79;99557.39;1748670;81;21682;-64
2021/01/31 06:20:12;;;;;;;12.82;9.25;;;;;;;2.24;71.42;99563.00;1771702;81;21147;-65
2021/01/31 06:22:43;;;;;;;16.23;10.10;;;;;;;2.18;71.30;99570.32;1764488;81;21150;-64
2021/01/31 06:25:28;;;;;;;14.93;8.70;;;;;;;2.16;71.42;99569.84;1752474;81;21595;-65
2021/01/31 06:28:17;;;;;;;16.77;10.10;;;;;;;2.11;70.04;99581.50;1755450;81;21159;-66
2021/01/31 06:31:18;;;;;;;15.05;9.90;;;;;;;2.14;70.94;99585.83;1766456;81;21148;-65
2021/01/31 06:33:47;;;;;;;13.62;9.73;;;;;;;2.14;71.06;99592.33;1755721;81;21133;-65
2021/01/31 06:36:26;;;;;;;16.45;9.95;;;;;;;2.23;70.67;99593.72;1752057;81;21113;-64
2021/01/31 06:39:26;;;;;;;14.30;9.47;;;;;;;2.31;70.70;99605.45;1747790;81;21220;-65
2021/01/31 06:42:12;;;;;;;15.40;9.80;;;;;;;2.29;70.96;99604.57;1739262;81;21140;-65
2021/01/31 06:45:15;;;;;;;14.15;9.13;;;;;;;2.30;71.27;99612.39;1752564;81;21160;-66
2021/01/31 06:48:14;;;;;;;13.70;8.93;;;;;;;2.33;71.70;99618.92;1761877;81;21170;-65
2021/01/31 06:51:21;;;;;;;14.87;8.40;;;;;;;2.35;71.45;99618.50;1742186;81;21206;-66
2021/01/31 06:54:18;;;;;;;14.68;9.53;;;;;;;2.37;71.11;99620.69;1761726;81;21727;-66
2021/01/31 06:57:26;;;;;;;13.98;8.98;;;;;;;2.42;71.33;99632.84;1761560;81;21194;-65
2021/01/31 07:00:26;;;;;;;17.25;10.08;;;;;;;2.49;71.55;99644.59;1771917;80;21289;-66
2021/01/31 07:03:18;;;;;;;19.15;11.08;;;;;;;2.57;71.70;99650.30;1701910;83;21614;-66
2021/01/31 07:06:04;;;;;;;19.57;10.90;;;;;;;2.56;70.82;99659.80;1676142;85;21606;-65
2021/01/31 07:09:15;;;;;;;16.65;11.18;;;;;;;2.60;70.35;99660.71;1681060;84;21501;-66
2021/01/31 07:11:56;;;;;;;21.57;11.97;;;;;;;2.61;71.51;99663.31;1757098;81;21146;-66
2021/01/31 07:15:00;;;;;;;12.88;8.63;;;;;;;2.59;71.08;99668.06;1741337;82;21214;-66
2021/01/31 07:17:53;;;;;;;17.25;11.35;;;;;;;2.56;70.02;99679.28;1741203;82;21187;-65
2021/01/31 07:20:30;;;;;;;16.15;9.78;;;;;;;2.57;70.99;99690.12;1742169;81;21611;-66
2021/01/31 07:23:11;;;;;;;16.07;9.73;;;;;;;2.53;69.75;99694.84;1763015;81;21174;-67
2021/01/31 07:25:44;;;;;;;24.43;12.65;;;;;;;2.54;71.05;99704.37;1760581;81;21192;-66
2021/01/31 07:28:28;;;;;;;36.60;17.17;;;;;;;2.61;70.77;99701.43;1753162;81;21183;-67
2021/01/31 07:31:07;;;;;;;40.80;19.45;;;;;;;2.71;71.86;99699.78;1751233;81;21152;-67
2021/01/31 07:34:00;;;;;;;24.18;13.35;;;;;;;2.78;71.16;99696.37;1751379;81;21143;-66
2021/01/31 07:36:57;;;;;;;17.42;10.10;;;;;;;2.80;70.20;99692.06;1722892;83;21173;-65
2021/01/31 07:39:36;;;;;;;13.25;8.85;;;;;;;2.89;70.62;99677.81;1737327;81;21150;-65
2021/01/31 07:42:08;;;;;;;16.17;10.93;;;;;;;2.97;69.87;99667.05;1834766;77;22172;-65
2021/01/31 07:44:37;;;;;;;15.85;9.95;;;;;;;2.98;70.11;99666.20;1787945;80;21179;-66
2021/01/31 07:47:05;;;;;;;16.17;11.12;;;;;;;3.07;71.17;99662.81;1761876;81;21146;-66
2021/01/31 07:49:58;;;;;;;17.02;10.93;;;;;;;3.19;71.41;99654.20;1727770;82;21241;-66
2021/01/31 07:52:27;;;;;;;12.33;8.40;;;;;;;3.27;71.37;99656.44;1725844;83;21177;-66
2021/01/31 07:55:19;;;;;;;12.15;8.80;;;;;;;3.37;71.72;99649.54;1720978;83;21150;-66
2021/01/31 07:58:22;;;;;;;13.08;8.60;;;;;;;3.48;71.66;99657.84;1634144;87;21169;-65
2021/01/31 08:00:51;;;;;;;16.35;10.08;;;;;;;3.54;71.53;99643.12;1713988;83;21583;-66
2021/01/31 08:03:35;;;;;;;14.13;9.60;;;;;;;3.58;71.43;99632.28;1728701;83;21177;-66
2021/01/31 08:06:07;;;;;;;18.40;10.28;;;;;;;3.61;71.17;99617.98;1728238;81;21162;-66
2021/01/31 08:08:46;;;;;;;12.98;8.70;;;;;;;3.63;71.36;99614.09;1698052;83;21593;-66
2021/01/31 08:11:22;;;;;;;14.60;9.65;;;;;;;3.71;71.64;99615.00;1716224;83;21159;-65
2021/01/31 08:13:51;;;;;;;14.50;9.80;;;;;;;3.85;72.25;99628.91;1727712;83;21131;-66
2021/01/31 08:16:47;;;;;;;15.75;10.00;;;;;;;3.99;72.57;99634.59;1685528;83;21171;-65
2021/01/31 08:19:22;;;;;;;12.43;9.10;;;;;;;4.07;72.44;99647.62;1699331;83;21276;-64
2021/01/31 08:22:00;;;;;;;15.80;10.28;;;;;;;4.17;72.87;99658.52;1722178;83;21570;-65
2021/01/31 08:25:10;;;;;;;75.15;45.45;;;;;;;4.26;72.53;99667.66;1697671;84;21139;-69
2021/01/31 08:27:44;;;;;;;94.53;58.10;;;;;;;4.45;72.20;99678.97;1707857;83;21174;-66
2021/01/31 08:30:38;;;;;;;29.10;21.85;;;;;;;4.45;72.20;99678.97;1706021;83;21821;-66
2021/01/31 08:33:27;;;;;;;29.65;20.35;;;;;;;4.54;72.59;99695.05;1699940;84;21173;-63
2021/01/31 08:36:22;;;;;;;25.85;18.73;;;;;;;4.69;73.16;99726.78;1700774;83;21300;-62
2021/01/31 08:38:55;;;;;;;24.87;20.37;;;;;;;4.94;73.55;99750.70;1725491;83;21130;-67
2021/01/31 08:41:37;;;;;;;29.60;22.58;;;;;;;5.09;73.13;99753.33;1725511;81;21336;-61
2021/01/31 08:44:17;;;;;;;21.00;15.03;;;;;;;5.22;72.67;99759.41;1698445;83;21320;-61
2021/01/31 08:47:00;;;;;;;24.25;19.23;;;;;;;5.24;71.21;99752.91;1691782;83;21592;-61
2021/01/31 08:49:28;;;;;;;24.07;17.67;;;;;;;5.27;72.44;99755.51;1685372;83;21546;-67
2021/01/31 08:52:02;;;;;;;22.13;16.65;;;;;;;5.36;72.40;99765.91;1689392;85;21323;-60
2021/01/31 08:54:30;;;;;;;18.67;14.50;;;;;;;5.44;72.91;99755.48;1683063;83;21226;-67
2021/01/31 08:57:01;;;;;;;21.17;15.72;;;;;;;5.53;72.79;99742.85;1723555;83;21174;-67
2021/01/31 08:59:42;;;;;;;20.55;14.30;;;;;;;5.56;72.00;99740.23;1723571;82;21145;-68
2021/01/31 09:02:18;;;;;;;17.40;12.82;;;;;;;5.56;72.25;99739.78;1715972;83;21142;-67
2021/01/31 09:05:00;;;;;;;17.87;14.43;;;;;;;5.60;72.54;99761.10;1742764;80;21617;-67
2021/01/31 09:07:36;;;;;;;21.93;16.27;;;;;;;5.63;71.57;99763.70;1728920;82;21147;-61
2021/01/31 09:10:35;;;;;;;20.85;14.68;;;;;;;5.65;72.54;99768.94;1686832;84;21318;-68
2021/01/31 09:13:30;;;;;;;23.92;16.95;;;;;;;5.69;72.15;99772.41;1720362;83;21182;-59
2021/01/31 09:16:24;;;;;;;20.57;14.65;;;;;;;5.68;72.68;99773.28;1696108;83;21201;-67
2021/01/31 09:19:09;;;;;;;19.12;14.75;;;;;;;5.69;72.52;99766.77;1711133;83;21121;-59
2021/01/31 09:21:47;;;;;;;18.92;13.78;;;;;;;5.79;73.02;99749.32;1832069;77;22159;-66
2021/01/31 09:24:16;;;;;;;20.90;14.38;;;;;;;5.72;72.91;99752.39;1761642;81;21155;-66
2021/01/31 09:26:56;;;;;;;18.52;13.18;;;;;;;5.75;73.96;99759.34;1758397;81;21145;-67
2021/01/31 09:29:29;;;;;;;18.30;13.53;;;;;;;5.98;73.68;99757.08;1758448;81;21138;-66
2021/01/31 09:32:09;;;;;;;24.43;13.93;;;;;;;6.09;73.55;99752.30;1757924;80;21145;-67
2021/01/31 09:34:39;;;;;;;21.07;13.55;;;;;;;6.14;73.49;99764.03;1762063;80;21180;-60
2021/01/31 09:37:32;;;;;;;19.62;14.18;;;;;;;6.22;73.15;99760.06;1743628;81;21523;-67
2021/01/31 09:40:03;;;;;;;17.07;12.73;;;;;;;6.25;73.13;99776.62;1719868;83;21183;-60
2021/01/31 09:42:34;;;;;;;16.05;12.68;;;;;;;6.31;72.79;99784.86;1678114;84;21167;-66
2021/01/31 09:45:25;;;;;;;21.82;13.50;;;;;;;6.30;72.05;99787.05;1692155;83;21607;-60
2021/01/31 09:47:53;;;;;;;15.55;11.48;;;;;;;6.29;73.31;99789.68;1675724;86;21178;-60
2021/01/31 09:50:21;;;;;;;15.25;12.88;;;;;;;6.31;72.75;99789.23;1666686;84;21123;-67
2021/01/31 09:52:50;;;;;;;15.13;11.20;;;;;;;6.24;71.68;99791.88;1686479;85;21582;-66
2021/01/31 09:55:40;;;;;;;17.30;11.38;;;;;;;6.19;72.24;99795.36;1693579;83;21178;-67
2021/01/31 09:58:43;;;;;;;14.87;10.58;;;;;;;6.11;72.05;99805.84;1669195;84;21144;-60
2021/01/31 10:01:23;;;;;;;14.65;8.93;;;;;;;6.03;72.62;99816.75;1655360;86;21628;-59
2021/01/31 10:04:03;;;;;;;13.87;9.03;;;;;;;6.14;72.88;99831.97;1663807;86;21599;-67
2021/01/31 10:06:43;;;;;;;15.48;9.38;;;;;;;6.20;72.26;99851.55;1663972;86;21186;-67
2021/01/31 10:09:12;;;;;;;13.83;10.18;;;;;;;6.19;71.57;99852.84;1664107;86;21167;-60
2021/01/31 10:11:44;;;;;;;17.95;11.65;;;;;;;6.18;72.46;99865.52;1664902;86;21123;-60
2021/01/31 10:14:14;;;;;;;19.37;11.35;;;;;;;6.13;72.01;99865.95;1663852;86;21594;-66
2021/01/31 10:16:42;;;;;;;15.48;10.70;;;;;;;6.09;71.85;99866.38;1672594;85;21583;-66
2021/01/31 10:19:18;;;;;;;13.25;9.53;;;;;;;6.08;72.59;99866.83;1689233;85;21614;-66
2021/01/31 10:21:55;;;;;;;12.50;8.93;;;;;;;6.09;72.33;99874.22;1680060;85;21207;-60
2021/01/31 10:24:31;;;;;;;14.07;8.33;;;;;;;6.09;72.34;99864.66;1656529;84;21207;-65
2021/01/31 10:27:33;;;;;;;11.70;8.23;;;;;;;6.13;72.00;99862.89;1667479;86;21287;-60
2021/01/31 10:30:28;;;;;;;12.18;9.03;;;;;;;6.06;72.63;99870.30;1665634;85;21199;-65
2021/01/31 10:32:56;;;;;;;12.65;8.25;;;;;;;6.19;72.99;99874.64;1659644;86;21178;-59
2021/01/31 10:35:45;;;;;;;12.23;9.40;;;;;;;6.17;72.31;99873.77;1639501;86;21163;-59
2021/01/31 10:38:32;;;;;;;11.88;9.03;;;;;;;6.15;72.62;99883.36;1732366;83;21122;-60
2021/01/31 10:41:00;;;;;;;44.58;31.52;;;;;;;6.21;72.18;99879.84;1791900;80;21305;-64
2021/01/31 10:43:28;;;;;;;21.45;19.12;;;;;;;6.27;72.58;99886.83;1790926;78;21557;-64
2021/01/31 10:45:55;;;;;;;17.95;14.03;;;;;;;6.26;71.41;99887.25;1769035;81;21181;-59
2021/01/31 10:48:23;;;;;;;14.18;11.45;;;;;;;6.30;72.56;99892.05;1768627;81;21593;-59
2021/01/31 10:50:51;;;;;;;17.23;13.43;;;;;;;6.27;71.85;99884.20;1791028;80;21130;-64
2021/01/31 10:53:18;;;;;;;20.60;16.10;;;;;;;6.31;71.74;99871.11;1807246;78;21125;-64
2021/01/31 10:55:47;;;;;;;18.55;12.65;;;;;;;6.33;72.23;99861.98;1799811;80;21141;-65
2021/01/31 10:58:15;;;;;;;15.55;12.35;;;;;;;6.39;72.15;99861.52;1790171;79;21135;-60
2021/01/31 11:00:43;;;;;;;18.65;13.88;;;;;;;6.39;71.66;99864.58;1782458;79;21188;-59
2021/01/31 11:03:10;;;;;;;15.00;12.00;;;;;;;6.38;71.68;99873.30;1816893;79;21158;-60
2021/01/31 11:05:38;;;;;;;14.58;11.43;;;;;;;6.37;71.91;99875.48;1815772;78;21120;-58
2021/01/31 11:08:06;;;;;;;16.10;11.93;;;;;;;6.27;71.54;99879.84;1819780;79;21167;-59
2021/01/31 11:10:34;;;;;;;16.42;10.95;;;;;;;6.06;71.86;99865.08;1813575;78;21664;-59
2021/01/31 11:13:01;;;;;;;14.58;10.63;;;;;;;5.96;71.97;99861.59;1818048;79;21116;-64
2021/01/31 11:15:29;;;;;;;14.23;10.18;;;;;;;5.87;71.13;99866.82;1819702;79;21156;-58
2021/01/31 11:17:58;;;;;;;13.38;9.75;;;;;;;5.82;72.14;99877.28;1807338;78;21637;-64
2021/01/31 11:20:26;;;;;;;12.40;8.90;;;;;;;5.79;72.85;99881.20;1813771;78;21140;-58
2021/01/31 11:22:54;;;;;;;12.78;9.70;;;;;;;5.81;72.25;99873.79;1816078;78;21252;-64
2021/01/31 11:25:21;;;;;;;12.05;9.20;;;;;;;5.98;72.32;99875.52;1820682;78;21548;-58
2021/01/31 11:27:49;;;;;;;15.53;10.50;;;;;;;6.06;72.37;99863.36;1808301;79;21114;-64
2021/01/31 11:30:40;;;;;;;13.08;10.30;;;;;;;6.11;72.49;99863.33;1811748;78;21183;-59
2021/01/31 11:33:08;;;;;;;15.75;10.00;;;;;;;6.14;72.23;99863.33;1667889;85;21130;-58
2021/01/31 11:35:36;;;;;;;11.55;8.90;;;;;;;6.18;71.90;99862.45;1697702;83;21372;-63
2021/01/31 11:38:05;;;;;;;12.25;8.65;;;;;;;6.32;72.32;99882.46;1666455;84;21318;-63
2021/01/31 11:40:32;;;;;;;13.85;9.50;;;;;;;6.39;71.88;99881.57;1673249;83;21199;-58
2021/01/31 11:43:00;;;;;;;11.55;8.95;;;;;;;6.36;71.55;99881.58;1676129;84;21195;-64
2021/01/31 11:45:28;;;;;;;13.18;9.30;;;;;;;6.42;71.76;99886.76;1676143;83;21216;-63
2021/01/31 11:47:56;;;;;;;11.30;8.68;;;;;;;6.55;72.47;99895.00;1654087;84;21151;-58
2021/01/31 11:50:25;;;;;;;12.33;8.30;;;;;;;6.66;71.75;99905.88;1646827;86;21716;-58
2021/01/31 11:52:54;;;;;;;11.88;8.68;;;;;;;6.68;71.64;99918.05;1658820;84;21186;-58
2021/01/31 11:55:22;;;;;;;10.28;8.65;;;;;;;6.67;71.61;99921.99;1666603;85;21283;-63
2021/01/31 11:57:50;;;;;;;12.00;8.98;;;;;;;6.66;70.87;99918.49;1680457;85;21137;-63
2021/01/31 12:00:19;;;;;;;13.98;10.43;;;;;;;6.60;71.71;99918.96;1653466;86;21193;-58
2021/01/31 12:02:47;;;;;;;17.55;13.15;;;;;;;6.65;71.29;99915.90;1656700;86;21175;-63
2021/01/31 12:05:18;;;;;;;45.73;33.98;;;;;;;6.66;70.98;99924.17;1660806;84;21606;-58
2021/01/31 12:07:45;;;;;;;17.65;14.30;;;;;;;6.65;71.31;99908.91;1658519;85;21615;-63
2021/01/31 12:10:14;;;;;;;15.03;11.95;;;;;;;6.67;70.78;99905.84;1656671;86;21225;-58
2021/01/31 12:12:43;;;;;;;13.98;10.40;;;;;;;6.69;71.40;99923.72;1656980;86;21136;-59